Morse, Louisiana
Current Conditions -  °F | °C
As of 6:15 AM on Saturday 25 Oct 2014 (Local Time) from K3R7 Reporting Station
Haze Haze  
Wind Chill: 50°   Ceiling: Unl
Heat Index: 50°   Visibility: 2.5mi
Dew Point: 50°   Wind: 0mph
Humidity: 99%   Direction: NA
Pressure: 30.14"   Gusts: NA
Location:  30.12°N, 92.5°W
Report Text: K3R7 251115Z AUTO 00000KT 2 1/2SM BR CLR 10/10 A3014 RMK AO2 VIS 1/2V5 T01010099
Loading
Personal Weather Stations






























Interactive Weather Map
Tropical Storm Tracking
New forecast layout! Learn more

10-Day Weather Forecast

Advertisements
Track Severe Weather on mobile